createdAt,value
2022-12-27T00:02:10.011Z,2.20
2022-12-27T00:04:39.727Z,2.10
2022-12-27T00:07:11.098Z,2.10
2022-12-27T00:09:40.350Z,2.10
2022-12-27T00:12:09.908Z,2.00
2022-12-27T00:14:38.693Z,1.90
2022-12-27T00:17:07.827Z,2.10
2022-12-27T00:19:36.895Z,2.30
2022-12-27T00:22:06.522Z,2.33
2022-12-27T00:24:36.995Z,1.70
2022-12-27T00:27:06.102Z,2.00
2022-12-27T00:29:35.184Z,1.77
2022-12-27T00:32:05.087Z,2.08
2022-12-27T00:34:34.245Z,1.90
2022-12-27T00:37:03.296Z,1.80
2022-12-27T00:39:32.539Z,1.70
2022-12-27T00:42:03.730Z,1.73
2022-12-27T00:44:32.327Z,1.70
2022-12-27T00:47:00.956Z,1.58
2022-12-27T00:49:29.413Z,2.22
2022-12-27T00:51:58.092Z,2.00
2022-12-27T00:54:26.895Z,2.13
2022-12-27T00:56:55.495Z,2.20
2022-12-27T00:59:26.042Z,2.35
2022-12-27T01:01:55.193Z,2.30
2022-12-27T01:04:24.287Z,1.88
2022-12-27T01:06:53.378Z,1.83
2022-12-27T01:09:23.671Z,1.92
2022-12-27T01:11:53.052Z,2.00
2022-12-27T01:14:21.756Z,1.90
2022-12-27T01:16:52.234Z,2.28
2022-12-27T01:19:21.067Z,2.20
2022-12-27T01:21:49.913Z,1.77
2022-12-27T01:24:18.808Z,1.95
2022-12-27T01:26:47.419Z,2.17
2022-12-27T01:29:16.128Z,2.30
2022-12-27T01:31:45.066Z,2.10
2022-12-27T01:34:15.765Z,2.05
2022-12-27T01:36:44.339Z,1.73
2022-12-27T01:39:14.227Z,1.90
2022-12-27T01:42:02.367Z,1.90
2022-12-27T01:44:54.099Z,1.90
2022-12-27T01:47:35.355Z,1.98
2022-12-27T01:50:11.309Z,1.73
2022-12-27T01:52:44.636Z,1.52
2022-12-27T01:55:20.564Z,1.77
2022-12-27T01:57:53.730Z,1.75
2022-12-27T02:00:23.752Z,1.85
2022-12-27T02:02:53.795Z,1.67
2022-12-27T02:05:26.204Z,1.90
2022-12-27T02:08:07.035Z,1.70
2022-12-27T02:10:36.601Z,1.60
2022-12-27T02:13:07.151Z,1.52
2022-12-27T02:15:35.983Z,1.67
2022-12-27T02:18:04.853Z,1.60
2022-12-27T02:20:52.520Z,1.88
2022-12-27T02:24:02.664Z,1.85
2022-12-27T02:27:01.222Z,1.98
2022-12-27T02:29:48.742Z,1.63
2022-12-27T02:32:24.162Z,1.80
2022-12-27T02:35:03.230Z,1.70
2022-12-27T02:37:35.474Z,1.90
2022-12-27T02:40:26.603Z,1.60
2022-12-27T02:43:14.747Z,1.80
2022-12-27T02:46:10.393Z,1.90
2022-12-27T02:48:56.547Z,2.03
2022-12-27T02:51:56.444Z,1.80
2022-12-27T02:54:48.244Z,1.75
2022-12-27T02:57:25.526Z,1.88
2022-12-27T03:00:24.510Z,2.13
2022-12-27T03:03:24.399Z,1.90
2022-12-27T03:06:29.765Z,1.88
2022-12-27T03:09:10.138Z,1.70
2022-12-27T03:12:07.303Z,1.60
2022-12-27T03:14:57.063Z,1.70
2022-12-27T03:17:31.096Z,1.70
2022-12-27T03:20:39.088Z,1.98
2022-12-27T03:23:27.584Z,1.95
2022-12-27T03:25:59.417Z,2.30
2022-12-27T03:29:00.623Z,1.90
2022-12-27T03:31:51.041Z,2.10
2022-12-27T03:34:33.220Z,1.85
2022-12-27T03:37:26.115Z,2.10
2022-12-27T03:40:04.932Z,2.03
2022-12-27T03:42:56.472Z,2.25
2022-12-27T03:45:45.326Z,1.95
2022-12-27T03:48:20.993Z,1.85
2022-12-27T03:50:55.715Z,1.90
2022-12-27T03:55:56.464Z,1.75
2022-12-27T03:58:26.683Z,1.67
2022-12-27T04:00:56.741Z,1.85
2022-12-27T04:03:28.105Z,1.63
2022-12-27T04:05:57.331Z,2.10
2022-12-27T04:08:45.488Z,2.05
2022-12-27T04:11:32.026Z,1.95
2022-12-27T04:14:18.569Z,1.88
2022-12-27T04:17:05.007Z,2.00
2022-12-27T04:19:51.663Z,1.88
2022-12-27T04:22:38.297Z,1.88
2022-12-27T04:25:27.258Z,1.95
2022-12-27T04:28:14.922Z,1.95
2022-12-27T04:31:01.134Z,1.88
2022-12-27T04:33:47.675Z,1.98
2022-12-27T04:36:18.327Z,1.88
2022-12-27T04:38:48.089Z,1.92
2022-12-27T04:41:36.226Z,1.92
2022-12-27T04:44:22.819Z,2.08
2022-12-27T04:47:17.576Z,1.88
2022-12-27T04:50:04.256Z,2.03
2022-12-27T04:52:52.497Z,1.80
2022-12-27T04:55:24.229Z,1.73
2022-12-27T04:57:55.585Z,1.65
2022-12-27T05:00:44.466Z,1.83
2022-12-27T05:03:16.254Z,1.80
2022-12-27T05:05:46.180Z,2.00
2022-12-27T05:08:32.782Z,1.92
2022-12-27T05:11:20.183Z,1.83
2022-12-27T05:14:02.917Z,1.90
2022-12-27T05:16:34.134Z,2.00
2022-12-27T05:19:03.348Z,2.00
2022-12-27T05:21:37.301Z,1.90
2022-12-27T05:24:25.178Z,1.70
2022-12-27T05:26:57.746Z,1.92
2022-12-27T05:29:30.537Z,1.67
2022-12-27T05:32:00.280Z,2.40
2022-12-27T05:34:30.675Z,1.92
2022-12-27T05:37:00.545Z,1.88
2022-12-27T05:39:30.027Z,1.83
2022-12-27T05:41:59.568Z,1.95
2022-12-27T05:44:30.058Z,1.90
2022-12-27T05:46:59.250Z,2.13
2022-12-27T05:49:29.314Z,1.90
2022-12-27T05:51:58.572Z,1.70
2022-12-27T05:54:28.484Z,1.73
2022-12-27T05:56:57.530Z,1.70
2022-12-27T05:59:26.373Z,1.92
2022-12-27T06:01:57.604Z,1.70
2022-12-27T06:04:27.631Z,1.63
2022-12-27T06:06:57.205Z,2.10
2022-12-27T06:09:26.572Z,2.10
2022-12-27T06:11:56.107Z,2.05
2022-12-27T06:14:25.975Z,1.80
2022-12-27T06:16:58.117Z,1.90
2022-12-27T06:19:26.872Z,1.60
2022-12-27T06:21:57.932Z,1.95
2022-12-27T06:24:26.591Z,1.70
2022-12-27T06:26:55.704Z,1.92
2022-12-27T06:29:26.091Z,1.90
2022-12-27T06:31:57.835Z,2.20
2022-12-27T06:34:27.390Z,1.90
2022-12-27T06:36:56.643Z,1.95
2022-12-27T06:39:26.372Z,1.83
2022-12-27T06:41:56.615Z,2.00
2022-12-27T06:44:26.998Z,1.88
2022-12-27T06:46:58.407Z,2.10
2022-12-27T06:49:30.790Z,2.10
2022-12-27T06:52:01.226Z,1.83
2022-12-27T06:54:31.345Z,2.15
2022-12-27T06:57:00.754Z,1.80
2022-12-27T06:59:31.051Z,1.90
2022-12-27T07:02:01.746Z,2.47
2022-12-27T07:04:30.861Z,1.95
2022-12-27T07:06:59.753Z,2.00
2022-12-27T07:09:29.063Z,1.83
2022-12-27T07:11:57.618Z,2.00
2022-12-27T07:14:26.268Z,1.90
2022-12-27T07:16:54.858Z,1.85
2022-12-27T07:19:25.908Z,1.85
2022-12-27T07:21:55.575Z,1.80
2022-12-27T07:24:28.049Z,2.10
2022-12-27T07:26:58.142Z,1.85
2022-12-27T07:29:27.889Z,1.88
2022-12-27T07:31:56.938Z,1.80
2022-12-27T07:34:27.855Z,1.80
2022-12-27T07:36:56.590Z,2.05
2022-12-27T07:39:25.280Z,2.22
2022-12-27T07:41:54.346Z,2.00
2022-12-27T07:44:23.440Z,2.03
2022-12-27T07:46:52.883Z,2.08
2022-12-27T07:49:21.963Z,2.03
2022-12-27T07:51:52.565Z,1.65
2022-12-27T07:54:21.825Z,2.00
2022-12-27T07:56:50.937Z,1.77
2022-12-27T07:59:20.265Z,2.13
2022-12-27T08:02:08.845Z,2.10
2022-12-27T08:04:46.224Z,1.85
2022-12-27T08:07:21.010Z,1.80
2022-12-27T08:09:51.851Z,1.85
2022-12-27T08:12:22.312Z,2.00
2022-12-27T08:14:53.017Z,2.05
2022-12-27T08:17:25.461Z,1.90
2022-12-27T08:19:57.239Z,1.73
2022-12-27T08:22:28.504Z,1.98
2022-12-27T08:24:58.044Z,1.85
2022-12-27T08:27:29.228Z,1.80
2022-12-27T08:29:59.077Z,1.65
2022-12-27T08:32:29.410Z,1.88
2022-12-27T08:35:12.097Z,1.60
2022-12-27T08:37:52.078Z,1.70
2022-12-27T08:40:22.054Z,1.60
2022-12-27T08:42:51.553Z,1.60
2022-12-27T08:45:21.051Z,2.03
2022-12-27T08:47:50.252Z,1.58
2022-12-27T08:50:20.558Z,2.10
2022-12-27T08:52:52.383Z,1.90
2022-12-27T08:55:22.145Z,2.08
2022-12-27T08:57:53.009Z,1.95
2022-12-27T09:00:22.744Z,2.00
2022-12-27T09:02:52.686Z,2.08
2022-12-27T09:05:22.901Z,1.90
2022-12-27T09:07:55.837Z,2.35
2022-12-27T09:10:26.481Z,2.00
2022-12-27T09:12:55.895Z,1.90
2022-12-27T09:15:25.534Z,1.60
2022-12-27T09:17:54.843Z,2.20
2022-12-27T09:20:25.443Z,1.50
2022-12-27T09:22:57.170Z,2.05
2022-12-27T09:25:27.450Z,1.60
2022-12-27T09:27:57.107Z,1.58
2022-12-27T09:30:29.304Z,2.05
2022-12-27T09:33:00.660Z,2.08
2022-12-27T09:35:31.777Z,1.95
2022-12-27T09:38:05.981Z,2.00
2022-12-27T09:40:35.979Z,2.00
2022-12-27T09:43:22.249Z,2.15
2022-12-27T09:46:00.111Z,2.20
2022-12-27T09:48:33.773Z,1.95
2022-12-27T09:51:08.703Z,2.25
2022-12-27T09:56:21.771Z,1.70
2022-12-27T09:58:54.500Z,2.60
2022-12-27T10:01:30.945Z,2.00
2022-12-27T10:04:01.622Z,2.05
2022-12-27T10:06:45.612Z,1.80
2022-12-27T10:09:46.890Z,1.98
2022-12-27T10:12:32.073Z,1.80
2022-12-27T10:15:17.054Z,1.83
2022-12-27T10:17:56.250Z,1.70
2022-12-27T10:20:38.774Z,2.03
2022-12-27T10:23:12.672Z,1.80
2022-12-27T10:25:46.826Z,1.70
2022-12-27T10:28:19.674Z,1.90
2022-12-27T10:30:49.326Z,2.10
2022-12-27T10:33:22.351Z,1.65
2022-12-27T10:35:51.883Z,1.80
2022-12-27T10:38:22.622Z,1.85
2022-12-27T10:41:00.992Z,1.92
2022-12-27T10:43:37.821Z,1.90
2022-12-27T10:46:15.284Z,2.00
2022-12-27T10:49:22.043Z,2.25
2022-12-27T10:51:49.485Z,1.98
2022-12-27T10:54:25.566Z,1.67
2022-12-27T10:56:58.235Z,1.50
2022-12-27T10:59:30.139Z,2.45
2022-12-27T11:02:19.197Z,1.80
2022-12-27T11:05:00.365Z,2.00
2022-12-27T11:07:33.243Z,2.00
2022-12-27T11:10:18.210Z,2.00
2022-12-27T11:13:00.652Z,2.08
2022-12-27T11:15:33.711Z,1.90
2022-12-27T11:18:11.091Z,1.60
2022-12-27T11:20:46.223Z,2.38
2022-12-27T11:23:19.505Z,1.83
2022-12-27T11:25:55.443Z,2.00
2022-12-27T11:28:35.356Z,2.20
2022-12-27T11:31:10.296Z,1.65
2022-12-27T11:33:42.530Z,1.98
2022-12-27T11:36:13.597Z,2.00
2022-12-27T11:38:48.504Z,1.90
2022-12-27T11:41:27.920Z,1.90
2022-12-27T11:44:05.560Z,2.00
2022-12-27T11:46:42.968Z,1.65
2022-12-27T11:49:22.008Z,1.85
2022-12-27T11:52:26.721Z,2.05
2022-12-27T11:55:28.099Z,2.03
2022-12-27T11:58:19.923Z,1.70
2022-12-27T12:01:03.654Z,1.83
2022-12-27T12:04:04.113Z,1.75
2022-12-27T12:06:45.885Z,1.80
2022-12-27T12:09:42.159Z,1.80
2022-12-27T12:12:47.363Z,1.70
2022-12-27T12:16:04.030Z,1.63
2022-12-27T12:18:52.541Z,1.92
2022-12-27T12:21:28.220Z,1.70
2022-12-27T12:24:35.783Z,1.90
2022-12-27T12:27:26.560Z,1.70
2022-12-27T12:30:13.842Z,1.90
2022-12-27T12:33:01.070Z,1.70
2022-12-27T12:35:48.508Z,1.48
2022-12-27T12:38:23.851Z,1.40
2022-12-27T12:41:32.205Z,1.55
2022-12-27T12:44:44.681Z,1.70
2022-12-27T12:47:30.790Z,1.40
2022-12-27T12:50:28.511Z,1.48
2022-12-27T12:53:24.411Z,1.55
2022-12-27T12:56:04.988Z,1.48
2022-12-27T12:58:47.819Z,1.80
2022-12-27T13:01:45.092Z,1.45
2022-12-27T13:04:46.584Z,1.60
2022-12-27T13:07:37.783Z,1.40
2022-12-27T13:10:46.883Z,1.58
2022-12-27T13:13:27.416Z,1.70
2022-12-27T13:16:12.381Z,1.58
2022-12-27T13:18:52.831Z,1.48
2022-12-27T13:21:41.330Z,1.33
2022-12-27T13:24:18.605Z,1.60
2022-12-27T13:26:58.965Z,1.48
2022-12-27T13:29:48.272Z,1.95
2022-12-27T13:32:29.141Z,1.70
2022-12-27T13:35:09.565Z,1.70
2022-12-27T13:37:53.682Z,1.40
2022-12-27T13:40:49.109Z,1.40
2022-12-27T13:43:39.500Z,1.63
2022-12-27T13:46:29.070Z,1.50
2022-12-27T13:49:10.820Z,1.42
2022-12-27T13:51:48.986Z,1.85
2022-12-27T13:54:57.248Z,1.45
2022-12-27T13:57:49.031Z,1.65
2022-12-27T14:00:21.471Z,1.70
2022-12-27T14:03:23.723Z,1.77
2022-12-27T14:06:34.629Z,1.80
2022-12-27T14:09:29.056Z,1.52
2022-12-27T14:12:19.152Z,1.58
2022-12-27T14:14:50.782Z,1.52
2022-12-27T14:17:37.039Z,1.73
2022-12-27T14:20:23.326Z,1.70
2022-12-27T14:23:17.133Z,1.50
2022-12-27T14:26:31.789Z,1.40
2022-12-27T14:29:49.069Z,1.10
2022-12-27T14:32:50.537Z,1.40
2022-12-27T14:35:55.595Z,1.35
2022-12-27T14:38:55.191Z,1.35
2022-12-27T14:41:54.833Z,1.73
2022-12-27T14:45:04.711Z,1.50
2022-12-27T14:48:19.856Z,1.50
2022-12-27T14:51:59.422Z,1.27
2022-12-27T14:55:08.274Z,1.88
2022-12-27T14:57:48.644Z,1.52
2022-12-27T15:00:20.840Z,1.30
2022-12-27T15:03:09.311Z,1.48
2022-12-27T15:05:51.651Z,1.25
2022-12-27T15:08:37.518Z,1.30
2022-12-27T15:11:41.713Z,1.80
2022-12-27T15:14:28.087Z,1.30
2022-12-27T15:17:07.369Z,1.70
2022-12-27T15:20:07.498Z,1.50
2022-12-27T15:22:49.832Z,1.65
2022-12-27T15:25:30.073Z,1.40
2022-12-27T15:28:09.750Z,1.33
2022-12-27T15:30:52.186Z,1.40
2022-12-27T15:33:31.564Z,1.50
2022-12-27T15:36:09.648Z,1.50
2022-12-27T15:38:54.112Z,1.35
2022-12-27T15:41:34.059Z,1.45
2022-12-27T15:44:32.264Z,1.40
2022-12-27T15:47:48.020Z,1.48
2022-12-27T15:50:30.994Z,1.58
2022-12-27T15:53:28.887Z,1.58
2022-12-27T15:56:25.331Z,1.52
2022-12-27T15:59:47.806Z,1.50
2022-12-27T16:02:36.628Z,1.60
2022-12-27T16:05:36.268Z,1.75
2022-12-27T16:08:31.947Z,1.30
2022-12-27T16:11:02.583Z,1.55
2022-12-27T16:13:48.537Z,1.50
2022-12-27T16:17:01.786Z,1.50
2022-12-27T16:19:55.182Z,1.38
2022-12-27T16:22:36.122Z,1.48
2022-12-27T16:25:30.735Z,1.38
2022-12-27T16:28:05.141Z,1.50
2022-12-27T16:30:45.874Z,1.80
2022-12-27T16:33:37.939Z,1.40
2022-12-27T16:37:21.967Z,1.42
2022-12-27T16:40:10.801Z,1.33
2022-12-27T16:43:31.676Z,1.52
2022-12-27T16:46:30.756Z,1.10
2022-12-27T16:49:42.760Z,1.15
2022-12-27T16:52:28.529Z,1.15
2022-12-27T16:55:15.486Z,1.63
2022-12-27T16:57:48.130Z,1.48
2022-12-27T17:00:39.278Z,1.70
2022-12-27T17:03:32.007Z,1.65
2022-12-27T17:06:31.404Z,1.85
2022-12-27T17:09:33.905Z,1.65
2022-12-27T17:12:20.795Z,1.52
2022-12-27T17:14:56.388Z,1.63
2022-12-27T17:17:26.898Z,1.80
2022-12-27T17:20:02.475Z,1.50
2022-12-27T17:22:36.077Z,1.60
2022-12-27T17:25:07.476Z,1.50
2022-12-27T17:27:58.372Z,1.63
2022-12-27T17:30:37.087Z,2.83
2022-12-27T17:33:25.612Z,2.30
2022-12-27T17:36:23.897Z,2.60
2022-12-27T17:39:06.155Z,2.50
2022-12-27T17:42:06.341Z,2.42
2022-12-27T17:44:54.160Z,2.15
2022-12-27T17:47:53.845Z,2.00
2022-12-27T17:50:28.136Z,3.45
2022-12-27T17:53:34.652Z,3.70
2022-12-27T17:56:34.536Z,2.70
2022-12-27T17:59:07.141Z,2.28
2022-12-27T18:01:45.948Z,2.60
2022-12-27T18:04:24.135Z,2.33
2022-12-27T18:07:00.000Z,2.05
2022-12-27T18:09:38.463Z,2.28
2022-12-27T18:12:16.619Z,1.92
2022-12-27T18:14:50.482Z,1.92
2022-12-27T18:17:29.372Z,1.88
2022-12-27T18:19:58.441Z,1.90
2022-12-27T18:22:28.531Z,2.10
2022-12-27T18:24:58.484Z,2.38
2022-12-27T18:27:28.419Z,2.03
2022-12-27T18:29:58.911Z,1.88
2022-12-27T18:32:30.459Z,1.73
2022-12-27T18:35:02.851Z,2.17
2022-12-27T18:37:37.032Z,1.75
2022-12-27T18:40:07.369Z,1.80
2022-12-27T18:42:41.588Z,2.00
2022-12-27T18:45:21.446Z,1.83
2022-12-27T18:47:54.331Z,2.08
2022-12-27T18:50:26.613Z,2.10
2022-12-27T18:53:02.753Z,2.13
2022-12-27T18:55:32.376Z,3.00
2022-12-27T18:58:06.058Z,3.25
2022-12-27T19:00:50.306Z,4.78
2022-12-27T19:03:22.055Z,6.18
2022-12-27T19:06:13.883Z,6.95
2022-12-27T19:08:49.425Z,4.90
2022-12-27T19:11:22.438Z,5.30
2022-12-27T19:13:56.453Z,4.03
2022-12-27T19:16:30.318Z,4.05
2022-12-27T19:19:08.182Z,3.65
2022-12-27T19:21:41.210Z,4.00
2022-12-27T19:24:22.487Z,4.00
2022-12-27T19:26:52.207Z,3.25
2022-12-27T19:29:24.946Z,4.25
2022-12-27T19:31:57.691Z,3.58
2022-12-27T19:34:31.305Z,2.75
2022-12-27T19:37:02.816Z,2.85
2022-12-27T19:39:36.050Z,2.67
2022-12-27T19:42:08.475Z,2.22
2022-12-27T19:44:39.304Z,2.70
2022-12-27T19:47:13.872Z,2.72
2022-12-27T19:52:18.309Z,2.40
2022-12-27T19:54:48.428Z,2.25
2022-12-27T19:57:18.493Z,3.17
2022-12-27T19:59:47.773Z,3.80
2022-12-27T20:02:18.423Z,3.90
2022-12-27T20:04:49.708Z,4.30
2022-12-27T20:07:22.466Z,4.65
2022-12-27T20:09:51.311Z,4.28
2022-12-27T20:12:21.319Z,3.60
2022-12-27T20:14:51.586Z,3.03
2022-12-27T20:17:21.784Z,3.00
2022-12-27T20:19:52.401Z,2.95
2022-12-27T20:22:21.496Z,2.90
2022-12-27T20:24:51.583Z,2.60
2022-12-27T20:27:23.833Z,2.67
2022-12-27T20:29:53.694Z,2.30
2022-12-27T20:32:24.278Z,2.60
2022-12-27T20:34:56.610Z,2.85
2022-12-27T20:37:25.882Z,2.40
2022-12-27T20:39:56.033Z,2.42
2022-12-27T20:42:29.156Z,2.30
2022-12-27T20:44:59.125Z,2.33
2022-12-27T20:47:31.862Z,2.53
2022-12-27T20:50:03.675Z,2.28
2022-12-27T20:52:34.193Z,2.33
2022-12-27T20:55:03.555Z,2.25
2022-12-27T20:57:32.706Z,2.78
2022-12-27T21:00:02.887Z,2.80
2022-12-27T21:02:32.728Z,2.83
2022-12-27T21:05:03.208Z,2.60
2022-12-27T21:07:33.236Z,2.80
2022-12-27T21:10:02.811Z,2.88
2022-12-27T21:12:32.533Z,2.95
2022-12-27T21:15:03.079Z,4.40
2022-12-27T21:17:33.601Z,3.75
2022-12-27T21:20:07.060Z,4.35
2022-12-27T21:22:37.011Z,4.70
2022-12-27T21:25:06.773Z,4.55
2022-12-27T21:27:35.463Z,3.40
2022-12-27T21:30:06.050Z,2.90
2022-12-27T21:32:34.997Z,3.22
2022-12-27T21:35:06.316Z,3.20
2022-12-27T21:37:35.545Z,2.92
2022-12-27T21:40:05.762Z,2.55
2022-12-27T21:42:34.782Z,2.75
2022-12-27T21:45:03.603Z,2.53
2022-12-27T21:47:33.633Z,2.40
2022-12-27T21:50:05.319Z,2.30
2022-12-27T21:52:35.416Z,2.20
2022-12-27T21:55:04.868Z,2.53
2022-12-27T21:57:33.810Z,2.50
2022-12-27T22:00:04.748Z,2.45
2022-12-27T22:02:34.642Z,2.28
2022-12-27T22:05:06.274Z,2.60
2022-12-27T22:07:35.444Z,3.50
2022-12-27T22:10:07.473Z,3.65
2022-12-27T22:12:37.571Z,3.28
2022-12-27T22:15:07.713Z,3.80
2022-12-27T22:17:37.577Z,3.67
2022-12-27T22:20:10.062Z,2.80
2022-12-27T22:22:39.041Z,2.50
2022-12-27T22:25:10.563Z,2.97
2022-12-27T22:27:39.356Z,3.00
2022-12-27T22:30:09.518Z,2.92
2022-12-27T22:32:38.908Z,3.85
2022-12-27T22:35:10.352Z,3.05
2022-12-27T22:37:39.303Z,3.47
2022-12-27T22:40:25.960Z,3.40
2022-12-27T22:42:58.684Z,3.55
2022-12-27T22:45:29.469Z,3.30
2022-12-27T22:47:59.200Z,5.38
2022-12-27T22:50:31.263Z,4.35
2022-12-27T22:53:00.765Z,3.15
2022-12-27T22:55:30.476Z,3.10
2022-12-27T22:57:59.586Z,2.30
2022-12-27T23:00:29.051Z,2.72
2022-12-27T23:02:58.280Z,2.40
2022-12-27T23:05:30.144Z,2.30
2022-12-27T23:08:04.588Z,2.90
2022-12-27T23:10:37.936Z,2.25
2022-12-27T23:13:06.925Z,2.92
2022-12-27T23:15:35.351Z,3.60
2022-12-27T23:18:04.510Z,3.67
2022-12-27T23:20:36.196Z,3.15
2022-12-27T23:23:04.963Z,3.80
2022-12-27T23:25:33.952Z,3.50
2022-12-27T23:28:03.595Z,2.72
2022-12-27T23:30:33.070Z,3.05
2022-12-27T23:33:02.794Z,2.50
2022-12-27T23:35:31.693Z,2.53
2022-12-27T23:38:02.754Z,2.83
2022-12-27T23:40:32.003Z,2.85
2022-12-27T23:43:18.722Z,2.75
2022-12-27T23:45:49.569Z,2.25
2022-12-27T23:48:19.069Z,2.20
2022-12-27T23:50:49.026Z,2.10
2022-12-27T23:53:19.632Z,2.45
2022-12-27T23:55:57.818Z,1.98
2022-12-27T23:58:27.670Z,2.20
